Aérodrome :
LOGIN :

S'inscrire | Disclaimer

   EN    FR    IT 

 










Légende :    VFR   VFR Marginal   IFR   IFR Intensif   IFR Très Intensif
Visi : 
Plafond : 
>= 8 km
>= 3000ft
5 à 8 km
1000 à 3000 ft
1500m à 5 km
500 à 1000 ft
800 à 1500m
200 à 500 ft
< 800m
< 200 ft
Symboles :   Orages  Brouillard  Fortes neiges  Fortes précipitations  Vent > 20 kt
SIGMETs :   Divers  Orages  Givrage  Turbulence  Onde Orograph.  Cendres Volcan.






- Altitude de l'aérodrome : 202 ft
- Code IATA : LGW


EGKK - London Gatwick

DERNIER METAR :
  • 242120Z 26018KT 9999 FEW022 08/05 Q1006

METARs EXPIRÉS :
  • 242050Z 26018KT 9999 FEW023 09/05 Q1006
  • 242020Z 27014KT 9999 FEW027 10/07 Q1006
  • 241950Z 26012KT 9999 FEW023 10/07 Q1006
  • 241920Z 24011KT 9999 FEW020 SCT029 11/09 Q1006
  • 241850Z 27013KT 9999 BKN010 11/10 Q1005

TAF TAF EGKK
Valide du 24 à 18h jusqu'au 26 à 00h UTC


241656Z 2418/2524 24018G28KT 8000 BKN012
BECMG 2418/2421 26012KT 9999 SCT025
PROB30
TEMPO 2508/2511 26015G25KT 7000 SHRA
TEMPO 2511/2522 26015G25KT 7000 SHRA
PROB40
TEMPO 2511/2522 4000 +SHRAGS BKN012CB



MET'MAP, la Météo Aéronautique d'un coup d'oeil ! - Copyright ORBIFLY Décembre 2007 - Disclaimer

ORBIFLY MET'MAP TEAM :

Programmation & Développement : Alexandra Zaïnal
Sur une idée originale de : Baudouin d'Aumeries
Assistance à la programmation : Marc-Olivier Méhu
Soutien technique & logistique : Manuel Goepfert

Contact : metmap@orbifly.com




SOURCES & CREDITS :

   NOAA